Terminal Aerodrome Forecast
Issued by NWS Caribou, ME

Current Version | Previous Version | Text Only | Print | Product List | Glossary On
Versions: 1 2 3 4 5 6 7 8 9 10 11 12 13 14 15
000
FTUS41 KCAR 182331
TAFCAR
TAF
KCAR 182331Z 1900/1924 15006KT P6SM OVC045
     FM190300 16006KT P6SM OVC030
     FM190530 17007KT 2SM -SN OVC020
     FM190730 17007KT 3/4SM -SN BR OVC009
     FM191300 19006KT 2SM -SN OVC009
     FM191500 21005KT 5SM -SHSN OVC012
     FM192000 VRB03KT P6SM BKN020=

USA.gov is the U.S. government's official web portal to all federal, state and local government web resources and services.